CheckWX is a tool to help pilots better visualize weather data.  It is not intended as a substitute for an official pre-flight weather briefing.

17:36:08 UTC

KPDX METAR
Portland International Airport
Portland, Oregon, USA
Current

43 mins ago

KPDX 181653Z 35003KT 10SM FEW016 OVC030 18/13 A2989 RMK AO2 SLP121 T01830128
Observed
Aug-18 @ 16:53 UTC
Wind
  • 350° at 3 KTS
Visibility
10 SM
Flight Rules
MVFR
Cloud Levels
  • Few at 1,600' AGL
  • Overcast at 3,000' AGL
Temperature
18°C / 64°F
Dewpoint
13°C / 55°F
Humidity
73%
Altimeter
29.89" Hg
Pressure
1012.22 hPa
Previous

2 hours ago

KPDX 181553Z 00000KT 10SM FEW017 OVC031 17/13 A2989 RMK AO2 SLP121 T01720128
Observed
Aug-18 @ 15:53 UTC
Visibility
10 SM
Flight Rules
VFR
Cloud Levels
  • Few at 1,700' AGL
  • Overcast at 3,100' AGL
Temperature
17°C / 63°F
Dewpoint
13°C / 55°F
Humidity
77%
Altimeter
29.89" Hg
Pressure
1012.22 hPa
Previous

3 hours ago

KPDX 181453Z 00000KT 10SM FEW014 OVC032 17/13 A2989 RMK AO2 SLP121 T01670128 53000
Observed
Aug-18 @ 14:53 UTC
Visibility
10 SM
Flight Rules
VFR
Cloud Levels
  • Few at 1,400' AGL
  • Overcast at 3,200' AGL
Temperature
17°C / 63°F
Dewpoint
13°C / 55°F
Humidity
77%
Altimeter
29.89" Hg
Pressure
1012.22 hPa